Time;durP1;ratioP1;P1;durP2;ratioP2;P2;SDS_P1;SDS_P2;PMS_P1;PMS_P2;Temp;Humidity;BMP_temperature;BMP_pressure;BME280_temperature;BME280_humidity;BME280_pressure;Samples;Min_cycle;Max_cycle;Signal;HPM_P1;HPM_P2
2022/06/04 00:01:37;;;;;;;;;;;;;;;16.83;76.50;101374.81;5020184;28;19917;-65
2022/06/04 00:04:03;;;;;;;;;;;;;;;16.89;76.39;101376.81;5018168;28;19917;-65
2022/06/04 00:06:28;;;;;;;;;;;;;;;16.94;76.61;101375.66;5126845;23;19918;-65
2022/06/04 00:08:54;;;;;;;;;;;;;;;16.94;76.62;101371.00;4988751;28;19972;-64
2022/06/04 00:16:47;;;;;;;;;;;;;;;16.93;77.20;101379.56;5002928;28;19913;-63
2022/06/04 00:19:13;;;;;;;;;;;;;;;16.92;77.08;101381.50;4990875;28;20353;-64
2022/06/04 00:21:38;;;;;;;;;;;;;;;16.87;77.43;101372.91;4990117;28;19926;-64
2022/06/04 00:24:04;;;;;;;;;;;;;;;16.90;76.80;101377.56;4986095;28;19918;-64
2022/06/04 00:26:30;;;;;;;;;;;;;;;16.92;76.74;101381.50;4971690;28;19914;-64
2022/06/04 00:28:55;;;;;;;;;;;;;;;16.86;77.26;101377.56;4985958;28;20076;-64
2022/06/04 00:31:21;;;;;;;;;;;;;;;16.81;77.61;101363.53;4985300;28;19993;-64
2022/06/04 00:33:46;;;;;;;;;;;;;;;16.82;77.42;101367.84;4987444;28;20456;-63
2022/06/04 00:36:12;;;;;;;;;;;;;;;16.81;77.64;101371.69;4990424;28;19914;-63
2022/06/04 00:38:37;;;;;;;;;;;;;;;16.79;77.74;101374.81;4986013;28;20000;-64
2022/06/04 00:41:02;;;;;;;;;;;;;;;16.75;78.20;101370.50;4989844;28;19918;-63
2022/06/04 00:43:28;;;;;;;;;;;;;;;16.76;78.20;101372.06;4988046;28;20269;-64
2022/06/04 00:46:12;;;;;;;;;;;;;;;16.74;78.32;101385.25;4985596;28;19973;-64
2022/06/04 00:48:37;;;;;;;;;;;;;;;16.71;78.44;101375.13;4985718;28;20416;-65
2022/06/04 00:51:04;;;;;;;;;;;;;;;16.61;78.92;101375.81;4990430;28;20013;-64
2022/06/04 00:53:30;;;;;;;;;;;;;;;16.64;78.99;101375.09;4985190;28;20004;-64
2022/06/04 00:56:04;;;;;;;;;;;;;;;16.63;78.91;101390.63;4990227;28;20004;-64
2022/06/04 00:58:37;;;;;;;;;;;;;;;16.53;79.67;101387.81;4983657;28;20398;-64
2022/06/04 01:01:08;;;;;;;;;;;;;;;16.49;80.00;101387.00;4983756;28;19917;-64
2022/06/04 01:03:53;;;;;;;;;;;;;;;16.50;79.91;101380.41;4986531;28;19913;-64
2022/06/04 01:06:27;;;;;;;;;;;;;;;16.38;80.87;101380.66;4988544;28;19952;-63
2022/06/04 01:09:11;;;;;;;;;;;;;;;16.30;81.08;101373.63;4986172;28;20701;-65
2022/06/04 01:12:09;;;;;;;;;;;;;;;16.23;81.50;101374.34;4979282;28;20293;-64
2022/06/04 01:14:31;;;;;;;;;;;;;;;16.23;81.54;101372.41;4988054;28;19976;-64
2022/06/04 01:17:05;;;;;;;;;;;;;;;16.21;81.94;101369.28;4992801;28;19921;-65
2022/06/04 01:19:33;;;;;;;;;;;;;;;16.26;81.63;101374.34;4989569;28;19914;-65
2022/06/04 01:22:16;;;;;;;;;;;;;;;16.17;82.51;101373.09;4986424;28;19925;-64
2022/06/04 01:24:42;;;;;;;;;;;;;;;16.17;82.27;101371.19;4987987;28;19917;-64
2022/06/04 01:27:12;;;;;;;;;;;;;;;16.22;82.45;101376.25;4989066;28;20501;-63
2022/06/04 01:29:44;;;;;;;;;;;;;;;16.25;82.52;101369.31;4987064;28;19918;-63
2022/06/04 01:32:25;;;;;;;;;;;;;;;16.27;81.85;101367.00;4982067;28;20320;-64
2022/06/04 01:34:56;;;;;;;;;;;;;;;16.22;82.44;101370.03;4984529;28;20249;-64
2022/06/04 01:37:31;;;;;;;;;;;;;;;16.24;82.27;101371.22;4988798;28;19924;-64
2022/06/04 01:42:44;;;;;;;;;;;;;;;15.95;83.47;101374.84;4989263;28;19928;-64
2022/06/04 01:45:12;;;;;;;;;;;;;;;16.01;83.15;101376.06;4989369;28;20013;-64
2022/06/04 01:47:42;;;;;;;;;;;;;;;16.04;83.04;101375.34;4983180;28;19967;-64
2022/06/04 01:50:10;;;;;;;;;;;;;;;16.03;83.19;101372.97;4988473;28;19913;-64
2022/06/04 01:52:36;;;;;;;;;;;;;;;15.95;83.55;101371.34;4989453;28;19914;-64
2022/06/04 01:55:10;;;;;;;;;;;;;;;15.88;83.78;101366.63;4972518;28;19941;-64
2022/06/04 01:57:41;;;;;;;;;;;;;;;15.80;84.22;101361.47;4985260;28;19979;-63
2022/06/04 02:00:21;;;;;;;;;;;;;;;15.78;84.49;101359.13;4971051;28;20000;-63
2022/06/04 02:02:55;;;;;;;;;;;;;;;15.73;84.56;101364.91;4979536;28;19964;-64
2022/06/04 02:05:23;;;;;;;;;;;;;;;15.64;84.93;101364.41;4987505;28;19952;-64
2022/06/04 02:07:52;;;;;;;;;;;;;;;15.52;85.16;101372.03;4983073;28;19940;-64
2022/06/04 02:10:27;;;;;;;;;;;;;;;15.57;85.24;101366.25;4989237;28;19922;-64
2022/06/04 02:12:55;;;;;;;;;;;;;;;15.57;85.34;101356.19;4988625;28;20329;-64
2022/06/04 02:15:22;;;;;;;;;;;;;;;15.59;85.07;101370.19;4987806;28;20439;-64
2022/06/04 02:17:54;;;;;;;;;;;;;;;15.57;85.64;101361.63;4987642;28;20281;-63
2022/06/04 02:20:19;;;;;;;;;;;;;;;15.55;85.34;101366.63;4988529;28;19920;-63
2022/06/04 02:22:45;;;;;;;;;;;;;;;15.48;86.07;101369.28;4982948;28;19922;-62
2022/06/04 02:25:11;;;;;;;;;;;;;;;15.45;86.21;101359.16;4985696;28;19913;-64
2022/06/04 02:27:37;;;;;;;;;;;;;;;15.51;86.17;101354.97;4989201;28;19921;-64
2022/06/04 02:30:04;;;;;;;;;;;;;;;15.48;86.09;101355.72;4975494;28;19921;-64
2022/06/04 02:32:29;;;;;;;;;;;;;;;15.41;86.39;101358.28;4983702;28;20025;-63
2022/06/04 02:35:02;;;;;;;;;;;;;;;15.43;86.22;101355.25;4982452;28;20400;-64
2022/06/04 02:37:27;;;;;;;;;;;;;;;15.38;86.26;101353.63;4986146;28;19968;-64
2022/06/04 02:39:58;;;;;;;;;;;;;;;15.34;86.33;101358.22;4990681;28;19949;-64
2022/06/04 02:42:29;;;;;;;;;;;;;;;15.33;86.36;101356.63;4984214;28;19921;-64
2022/06/04 02:44:57;;;;;;;;;;;;;;;15.29;86.35;101355.84;4984675;28;20372;-63
2022/06/04 02:47:27;;;;;;;;;;;;;;;15.20;87.12;101364.25;4987658;28;19922;-63
2022/06/04 02:50:00;;;;;;;;;;;;;;;15.20;86.97;101358.03;4988020;28;20009;-64
2022/06/04 02:52:26;;;;;;;;;;;;;;;15.12;87.02;101357.16;4963388;28;19929;-65
2022/06/04 02:54:57;;;;;;;;;;;;;;;15.11;87.53;101358.31;4985911;28;19913;-64
2022/06/04 02:57:24;;;;;;;;;;;;;;;15.12;87.48;101356.38;4981052;28;19918;-64
2022/06/04 02:59:49;;;;;;;;;;;;;;;15.05;88.10;101361.72;4985646;28;19913;-65
2022/06/04 03:02:16;;;;;;;;;;;;;;;15.08;87.45;101360.97;4987809;28;19918;-63
2022/06/04 03:04:43;;;;;;;;;;;;;;;15.04;87.29;101374.47;4989395;28;19914;-64
2022/06/04 03:07:09;;;;;;;;;;;;;;;15.01;87.28;101372.53;4989677;28;19917;-64
2022/06/04 03:09:35;;;;;;;;;;;;;;;14.99;87.54;101372.09;4985745;28;20384;-65
2022/06/04 03:12:00;;;;;;;;;;;;;;;14.98;88.00;101375.19;4972747;28;19913;-64
2022/06/04 03:14:26;;;;;;;;;;;;;;;14.91;88.18;101384.00;4988779;28;19913;-65
2022/06/04 03:16:51;;;;;;;;;;;;;;;14.85;88.78;101381.94;4992249;28;19925;-65
2022/06/04 03:19:17;;;;;;;;;;;;;;;14.90;88.83;101376.22;4974058;28;20312;-64
2022/06/04 03:21:43;;;;;;;;;;;;;;;14.94;88.02;101383.25;4989902;28;19925;-65
2022/06/04 03:24:09;;;;;;;;;;;;;;;14.97;87.87;101387.16;4981694;28;19940;-64
2022/06/04 03:26:35;;;;;;;;;;;;;;;14.88;88.95;101390.16;4991105;28;19936;-63
2022/06/04 03:29:01;;;;;;;;;;;;;;;14.86;88.67;101383.53;4990408;28;19913;-65
2022/06/04 03:31:26;;;;;;;;;;;;;;;14.78;89.62;101387.28;4972349;28;19914;-65
2022/06/04 03:33:52;;;;;;;;;;;;;;;14.88;89.02;101389.38;4990614;28;20413;-64
2022/06/04 03:36:18;;;;;;;;;;;;;;;14.85;89.47;101390.09;5021292;23;20302;-67
2022/06/04 03:38:44;;;;;;;;;;;;;;;14.80;89.74;101390.41;5028051;28;19925;-68
2022/06/04 03:41:09;;;;;;;;;;;;;;;14.74;89.92;101389.16;5009808;28;19917;-68
2022/06/04 03:43:35;;;;;;;;;;;;;;;14.83;89.64;101395.09;5005422;28;20382;-65
2022/06/04 03:46:00;;;;;;;;;;;;;;;14.85;89.82;101407.16;5025522;28;20017;-67
2022/06/04 03:48:26;;;;;;;;;;;;;;;14.80;90.14;101415.59;5028402;28;19913;-67
2022/06/04 03:50:51;;;;;;;;;;;;;;;14.86;90.22;101414.16;5012990;28;19913;-66
2022/06/04 03:53:16;;;;;;;;;;;;;;;14.89;90.23;101412.63;5028856;28;19919;-67
2022/06/04 03:55:42;;;;;;;;;;;;;;;14.88;90.63;101408.34;5024986;28;20295;-67
2022/06/04 03:58:07;;;;;;;;;;;;;;;15.02;90.06;101414.75;5030022;28;19919;-65
2022/06/04 04:00:34;;;;;;;;;;;;;;;15.06;90.02;101420.25;5011375;28;19924;-67
2022/06/04 04:03:01;;;;;;;;;;;;;;;15.11;90.10;101419.94;5028305;28;19971;-65
2022/06/04 04:05:29;;;;;;;;;;;;;;;15.15;89.53;101432.41;5006510;28;19917;-64
2022/06/04 04:07:55;;;;;;;;;;;;;;;15.15;89.68;101437.06;5009461;28;20326;-68
2022/06/04 04:10:21;;;;;;;;;;;;;;;15.11;90.34;101437.00;5010135;28;19916;-67
2022/06/04 04:12:47;;;;;;;;;;;;;;;15.12;90.72;101438.56;5029848;28;20023;-68
2022/06/04 04:15:13;;;;;;;;;;;;;;;15.19;90.37;101437.88;5010972;28;20383;-67
2022/06/04 04:17:39;;;;;;;;;;;;;;;15.19;90.36;101430.50;5024382;28;20363;-66
2022/06/04 04:20:06;;;;;;;;;;;;;;;15.24;90.00;101432.13;5026494;28;19967;-67
2022/06/04 04:22:31;;;;;;;;;;;;;;;15.33;89.92;101432.63;5030054;28;19947;-67
2022/06/04 04:24:57;;;;;;;;;;;;;;;15.47;89.62;101432.06;5011311;28;20333;-67
2022/06/04 04:27:23;;;;;;;;;;;;;;;15.53;89.20;101436.03;5025793;28;19921;-67
2022/06/04 04:29:48;;;;;;;;;;;;;;;15.53;89.12;101420.53;5024352;28;19999;-68
2022/06/04 04:32:13;;;;;;;;;;;;;;;15.63;89.28;101427.25;5029733;28;20012;-67
2022/06/04 04:34:39;;;;;;;;;;;;;;;15.66;89.27;101415.66;5025067;28;19970;-67
2022/06/04 04:37:04;;;;;;;;;;;;;;;15.74;89.43;101412.63;5027881;28;20313;-66
2022/06/04 04:39:29;;;;;;;;;;;;;;;15.77;89.19;101406.47;5030191;28;19917;-67
2022/06/04 04:41:55;;;;;;;;;;;;;;;15.88;88.77;101403.88;5012386;28;19916;-66
2022/06/04 04:44:21;;;;;;;;;;;;;;;15.93;88.61;101403.53;5025557;28;19967;-67
2022/06/04 04:46:48;;;;;;;;;;;;;;;15.97;88.22;101396.19;5012528;28;20316;-67
2022/06/04 04:49:14;;;;;;;;;;;;;;;15.95;88.61;101387.66;5027319;28;19991;-66
2022/06/04 04:51:39;;;;;;;;;;;;;;;16.05;88.45;101389.69;5022462;28;19920;-68
2022/06/04 04:54:05;;;;;;;;;;;;;;;16.05;88.55;101398.63;5020754;28;20323;-67
2022/06/04 04:56:30;;;;;;;;;;;;;;;16.13;88.50;101399.47;5025866;28;20015;-68
2022/06/04 04:58:55;;;;;;;;;;;;;;;16.18;88.28;101412.75;5024305;28;19913;-66
2022/06/04 05:01:23;;;;;;;;;;;;;;;16.25;88.25;101407.34;5025107;28;20303;-68
2022/06/04 05:03:49;;;;;;;;;;;;;;;16.25;87.78;101396.47;5023971;28;19916;-67
2022/06/04 05:06:17;;;;;;;;;;;;;;;16.27;87.91;101396.91;5027640;28;20273;-65
2022/06/04 05:08:43;;;;;;;;;;;;;;;16.39;88.02;101393.09;5024820;28;19912;-68
2022/06/04 05:11:10;;;;;;;;;;;;;;;16.65;87.79;101409.28;5026869;28;19967;-65
2022/06/04 05:13:35;;;;;;;;;;;;;;;17.19;86.26;101403.03;5028517;28;19959;-68
2022/06/04 05:16:01;;;;;;;;;;;;;;;17.81;83.61;101405.28;5029008;28;19960;-68
2022/06/04 05:18:26;;;;;;;;;;;;;;;18.38;81.48;101406.16;5023404;28;19921;-68
2022/06/04 05:20:52;;;;;;;;;;;;;;;18.96;78.93;101411.22;5027278;28;19916;-66
2022/06/04 05:23:17;;;;;;;;;;;;;;;19.12;76.51;101411.59;5024973;28;19916;-68
2022/06/04 05:25:44;;;;;;;;;;;;;;;19.26;75.72;101416.25;5025754;28;20367;-68
2022/06/04 05:28:09;;;;;;;;;;;;;;;19.40;74.59;101419.72;5022910;28;19944;-65
2022/06/04 05:30:35;;;;;;;;;;;;;;;19.59;73.97;101407.53;5024030;28;20359;-68
2022/06/04 05:33:01;;;;;;;;;;;;;;;19.65;72.83;101406.75;5029953;28;20272;-68
2022/06/04 05:35:26;;;;;;;;;;;;;;;19.98;72.09;101394.44;5024607;28;20287;-68
2022/06/04 05:37:52;;;;;;;;;;;;;;;20.77;69.35;101404.41;5028195;28;19912;-67
2022/06/04 05:40:17;;;;;;;;;;;;;;;21.20;66.40;101410.28;4995022;28;19920;-67
2022/06/04 05:42:42;;;;;;;;;;;;;;;21.64;64.14;101414.84;5023759;28;20287;-65
2022/06/04 05:45:08;;;;;;;;;;;;;;;22.25;62.12;101428.13;5007025;28;20287;-68
2022/06/04 05:47:33;;;;;;;;;;;;;;;22.95;58.75;101428.97;5026650;28;19920;-68
2022/06/04 05:49:59;;;;;;;;;;;;;;;23.52;56.66;101430.66;5029264;28;20353;-65
2022/06/04 05:52:24;;;;;;;;;;;;;;;23.91;55.72;101436.88;5020716;28;19913;-68
2022/06/04 05:54:50;;;;;;;;;;;;;;;24.22;54.55;101445.63;5022610;28;20371;-68
2022/06/04 05:57:15;;;;;;;;;;;;;;;24.39;53.25;101438.94;5001069;28;19925;-68
2022/06/04 05:59:41;;;;;;;;;;;;;;;24.67;53.04;101441.00;5007764;28;19924;-68
2022/06/04 06:02:06;;;;;;;;;;;;;;;24.83;52.70;101446.56;5002076;28;20391;-68
2022/06/04 06:04:31;;;;;;;;;;;;;;;24.85;51.88;101451.63;5020261;28;19979;-66
2022/06/04 06:06:59;;;;;;;;;;;;;;;25.00;51.54;101447.28;5017284;28;20370;-67
2022/06/04 06:09:25;;;;;;;;;;;;;;;24.86;51.67;101442.91;5021793;28;20071;-68
2022/06/04 06:11:50;;;;;;;;;;;;;;;24.31;52.97;101443.09;5025563;28;20043;-68
2022/06/04 06:14:17;;;;;;;;;;;;;;;24.27;52.65;101444.38;5025416;28;19913;-66
2022/06/04 06:16:44;;;;;;;;;;;;;;;24.16;52.80;101450.88;5003188;28;20414;-66
2022/06/04 06:19:10;;;;;;;;;;;;;;;24.10;52.73;101452.59;5015735;28;19926;-66
2022/06/04 06:21:36;;;;;;;;;;;;;;;24.03;53.58;101458.28;5031867;28;19936;-68
2022/06/04 06:24:02;;;;;;;;;;;;;;;23.96;53.53;101457.63;5024288;28;19913;-68
2022/06/04 06:26:32;;;;;;;;;;;;;;;24.04;53.70;101457.06;5007537;28;20296;-68
2022/06/04 06:29:03;;;;;;;;;;;;;;;23.83;53.72;101457.47;5014271;28;19918;-68
2022/06/04 06:31:30;;;;;;;;;;;;;;;23.71;53.97;101452.63;5015104;28;19967;-65
2022/06/04 06:33:56;;;;;;;;;;;;;;;23.74;54.47;101451.78;4992359;28;19913;-68
2022/06/04 06:36:21;;;;;;;;;;;;;;;23.70;54.67;101453.84;5010221;28;19913;-67
2022/06/04 06:38:47;;;;;;;;;;;;;;;23.61;54.42;101461.13;4993944;28;20387;-67
2022/06/04 06:41:14;;;;;;;;;;;;;;;23.50;54.61;101466.81;5014814;28;19995;-65
2022/06/04 06:43:46;;;;;;;;;;;;;;;23.38;54.46;101461.97;4989386;28;19917;-67
2022/06/04 06:46:13;;;;;;;;;;;;;;;23.23;56.14;101461.41;5021502;28;20316;-67
2022/06/04 06:48:40;;;;;;;;;;;;;;;23.16;55.78;101464.31;5013191;28;19917;-67
2022/06/04 06:51:10;;;;;;;;;;;;;;;23.11;56.58;101462.03;5016312;28;19920;-67
2022/06/04 06:53:36;;;;;;;;;;;;;;;23.00;56.78;101458.69;5025122;28;20431;-67
2022/06/04 06:56:30;;;;;;;;;;;;;;;22.70;57.93;101458.84;5024903;28;20016;-67
2022/06/04 06:58:56;;;;;;;;;;;;;;;22.39;58.56;101477.34;5004954;28;19917;-67
2022/06/04 07:01:24;;;;;;;;;;;;;;;22.34;60.11;101466.03;5027595;28;19936;-65
2022/06/04 07:03:49;;;;;;;;;;;;;;;22.22;61.06;101472.84;5025605;28;19916;-67
2022/06/04 07:06:15;;;;;;;;;;;;;;;22.11;60.94;101475.00;5026253;28;20364;-66
2022/06/04 07:08:41;;;;;;;;;;;;;;;22.13;61.36;101488.28;5030748;28;19916;-66
2022/06/04 07:11:06;;;;;;;;;;;;;;;22.15;61.47;101486.69;5031117;28;19913;-67
2022/06/04 07:13:32;;;;;;;;;;;;;;;22.22;60.34;101486.59;5032277;28;19920;-67
2022/06/04 07:15:58;;;;;;;;;;;;;;;22.17;61.32;101494.50;5013428;28;19912;-67
2022/06/04 07:18:23;;;;;;;;;;;;;;;22.24;62.07;101492.44;5029757;28;20004;-67
2022/06/04 07:20:49;;;;;;;;;;;;;;;22.10;61.48;101494.63;5033261;28;20011;-68
2022/06/04 07:23:16;;;;;;;;;;;;;;;22.01;60.86;101500.59;5016945;28;19960;-64
2022/06/04 07:25:44;;;;;;;;;;;;;;;21.86;61.55;101499.22;5032059;28;19925;-66
2022/06/04 07:28:10;;;;;;;;;;;;;;;21.70;61.70;101503.72;5030815;28;20383;-67
2022/06/04 07:30:36;;;;;;;;;;;;;;;21.63;62.63;101504.56;5013213;28;19921;-67
2022/06/04 07:33:01;;;;;;;;;;;;;;;21.67;62.75;101510.00;5028233;28;20387;-66
2022/06/04 07:35:27;;;;;;;;;;;;;;;21.61;62.92;101511.63;5029881;28;20256;-65
2022/06/04 07:37:52;;;;;;;;;;;;;;;21.69;62.91;101510.38;5029183;28;19917;-65
2022/06/04 07:40:17;;;;;;;;;;;;;;;21.63;62.99;101504.56;5007600;28;19917;-67
2022/06/04 07:42:45;;;;;;;;;;;;;;;21.67;63.77;101520.97;5029221;28;19913;-66
2022/06/04 07:45:11;;;;;;;;;;;;;;;21.66;64.41;101522.19;4992964;28;20394;-64
2022/06/04 07:47:39;;;;;;;;;;;;;;;21.77;64.44;101526.34;5012166;28;19916;-67
2022/06/04 07:50:05;;;;;;;;;;;;;;;21.92;64.58;101521.50;5006830;28;19913;-65
2022/06/04 07:52:30;;;;;;;;;;;;;;;21.99;63.06;101518.69;5019022;28;20390;-64
2022/06/04 07:54:55;;;;;;;;;;;;;;;22.01;61.96;101522.53;5012634;28;19920;-66
2022/06/04 07:57:21;;;;;;;;;;;;;;;22.03;61.61;101527.63;5030528;28;19913;-67
2022/06/04 07:59:48;;;;;;;;;;;;;;;22.11;60.41;101521.63;5020404;28;19932;-67
2022/06/04 08:02:13;;;;;;;;;;;;;;;22.20;59.90;101526.63;5007995;28;19921;-66
2022/06/04 08:04:39;;;;;;;;;;;;;;;22.38;60.86;101532.66;5029360;28;19928;-67
2022/06/04 08:07:05;;;;;;;;;;;;;;;22.64;59.86;101533.88;5030834;28;19913;-67
2022/06/04 08:09:31;;;;;;;;;;;;;;;22.89;58.40;101537.81;5027127;28;19924;-67
2022/06/04 08:11:56;;;;;;;;;;;;;;;23.18;57.32;101533.38;5028172;28;20376;-67
2022/06/04 08:14:22;;;;;;;;;;;;;;;23.22;56.47;101531.34;5028157;28;20394;-64
2022/06/04 08:16:51;;;;;;;;;;;;;;;23.19;56.85;101531.41;5028036;28;19925;-66
2022/06/04 08:19:17;;;;;;;;;;;;;;;23.25;56.38;101537.97;5014932;28;20401;-67
2022/06/04 08:21:42;;;;;;;;;;;;;;;23.34;55.10;101531.97;5006646;28;20883;-66
2022/06/04 08:24:09;;;;;;;;;;;;;;;23.37;54.87;101529.16;5018191;28;19920;-66
2022/06/04 08:26:36;;;;;;;;;;;;;;;23.31;55.50;101533.56;5017030;28;20375;-65
2022/06/04 08:29:01;;;;;;;;;;;;;;;23.46;55.21;101534.09;5007951;28;20270;-65
2022/06/04 08:31:27;;;;;;;;;;;;;;;23.57;55.21;101540.19;5006587;28;20445;-67
2022/06/04 08:33:52;;;;;;;;;;;;;;;23.70;55.35;101535.59;5013741;28;19913;-67
2022/06/04 08:36:19;;;;;;;;;;;;;;;23.63;55.05;101538.50;5007764;28;19921;-65
2022/06/04 08:38:45;;;;;;;;;;;;;;;23.79;53.96;101533.84;5019684;28;20307;-67
2022/06/04 08:41:22;;;;;;;;;;;;;;;23.87;52.29;101535.25;5011457;28;19999;-63
2022/06/04 08:43:53;;;;;;;;;;;;;;;23.82;52.08;101535.75;5016314;28;19919;-65
2022/06/04 08:46:21;;;;;;;;;;;;;;;23.97;52.00;101537.00;4993508;28;20866;-67
2022/06/04 08:48:47;;;;;;;;;;;;;;;24.18;52.98;101538.56;5015015;28;19913;-67
2022/06/04 08:51:22;;;;;;;;;;;;;;;24.28;52.12;101553.31;5012357;28;19929;-64
2022/06/04 08:53:49;;;;;;;;;;;;;;;24.28;51.22;101554.09;5011393;28;19920;-64
2022/06/04 08:59:06;;;;;;;;;;;;;;;24.54;51.62;101546.84;5015583;28;20288;-67
2022/06/04 09:01:40;;;;;;;;;;;;;;;24.44;50.03;101551.38;5015166;28;19921;-64
2022/06/04 09:04:12;;;;;;;;;;;;;;;24.75;51.07;101558.19;5026826;28;20006;-64
2022/06/04 09:06:38;;;;;;;;;;;;;;;24.88;50.48;101547.22;5019537;28;19959;-66
2022/06/04 09:09:13;;;;;;;;;;;;;;;25.04;50.84;101559.06;5027539;28;19959;-67
2022/06/04 09:11:43;;;;;;;;;;;;;;;25.00;51.03;101560.34;5018237;28;19920;-66
2022/06/04 09:14:23;;;;;;;;;;;;;;;25.12;50.68;101564.38;5015779;28;19920;-66
2022/06/04 09:16:52;;;;;;;;;;;;;;;25.17;50.32;101559.13;5014281;28;20012;-66
2022/06/04 09:19:20;;;;;;;;;;;;;;;25.17;48.77;101559.13;5002569;28;20233;-66
2022/06/04 09:21:47;;;;;;;;;;;;;;;25.04;45.58;101550.78;5022815;28;21966;-68
2022/06/04 09:24:12;;;;;;;;;;;;;;;24.97;47.13;101547.44;5008877;28;20410;-65
2022/06/04 09:26:41;;;;;;;;;;;;;;;25.00;47.85;101538.28;5013336;28;20071;-65
2022/06/04 09:29:07;;;;;;;;;;;;;;;25.22;48.59;101538.53;5011236;28;20468;-66
2022/06/04 09:31:32;;;;;;;;;;;;;;;25.15;47.71;101544.19;5016424;28;19999;-66
2022/06/04 09:33:58;;;;;;;;;;;;;;;25.40;49.33;101536.09;5020667;28;19971;-64
2022/06/04 09:36:34;;;;;;;;;;;;;;;25.43;49.15;101538.78;5027127;22;19933;-64
2022/06/04 09:39:02;;;;;;;;;;;;;;;25.52;48.97;101546.41;4999634;28;20435;-67
2022/06/04 09:41:30;;;;;;;;;;;;;;;25.78;50.93;101546.06;4998609;28;19925;-65
2022/06/04 09:44:05;;;;;;;;;;;;;;;25.93;49.42;101549.22;4996115;28;19953;-67
2022/06/04 09:46:31;;;;;;;;;;;;;;;26.11;47.57;101549.50;4995704;28;19913;-67
2022/06/04 09:48:57;;;;;;;;;;;;;;;26.19;48.49;101558.34;4996946;28;20261;-68
2022/06/04 09:51:25;;;;;;;;;;;;;;;25.94;46.82;101564.56;4998946;28;19913;-67
2022/06/04 09:53:55;;;;;;;;;;;;;;;26.22;44.93;101563.00;4999682;28;19928;-67
2022/06/04 09:56:30;;;;;;;;;;;;;;;25.88;44.08;101574.59;4993746;28;19913;-66
2022/06/04 09:59:05;;;;;;;;;;;;;;;25.84;45.01;101560.88;4990896;28;19924;-65
2022/06/04 10:01:31;;;;;;;;;;;;;;;26.14;45.98;101554.13;4995264;28;19921;-65
2022/06/04 10:04:02;;;;;;;;;;;;;;;26.32;45.09;101565.44;4982368;28;19914;-66
2022/06/04 10:06:28;;;;;;;;;;;;;;;26.34;44.12;101570.53;4983474;28;19913;-65
2022/06/04 10:11:49;;;;;;;;;;;;;;;26.68;44.64;101574.19;4997686;28;20100;-65
2022/06/04 10:14:15;;;;;;;;;;;;;;;26.68;44.33;101568.66;4998361;28;19918;-65
2022/06/04 10:16:41;;;;;;;;;;;;;;;26.68;45.10;101576.19;5001639;28;19913;-65
2022/06/04 10:19:13;;;;;;;;;;;;;;;26.95;46.37;101572.97;5001917;28;19913;-65
2022/06/04 10:21:41;;;;;;;;;;;;;;;27.12;44.53;101577.19;5001237;28;19979;-65
2022/06/04 10:24:22;;;;;;;;;;;;;;;27.36;43.77;101567.28;5002094;28;19913;-66
2022/06/04 10:26:54;;;;;;;;;;;;;;;27.15;43.56;101562.44;4999555;28;20283;-66
2022/06/04 10:29:19;;;;;;;;;;;;;;;27.12;44.95;101561.31;4993221;28;19914;-66
2022/06/04 10:32:00;;;;;;;;;;;;;;;27.34;43.88;101570.50;5007299;28;19916;-66
2022/06/04 10:34:31;;;;;;;;;;;;;;;27.45;43.10;101564.59;4980189;28;19920;-66
2022/06/04 10:37:19;;;;;;;;;;;;;;;27.65;43.95;101556.75;4992615;28;19921;-66
2022/06/04 10:40:00;;;;;;;;;;;;;;;27.94;43.36;101557.31;4988899;28;19917;-66
2022/06/04 10:42:38;;;;;;;;;;;;;;;27.95;43.24;101561.59;4975348;28;19922;-66
2022/06/04 10:45:13;;;;;;;;;;;;;;;27.96;42.92;101557.63;4980816;28;20016;-66
2022/06/04 10:48:06;;;;;;;;;;;;;;;28.18;41.77;101554.84;5000201;28;19968;-66
2022/06/04 10:53:50;;;;;;;;;;;;;;;28.28;41.82;101559.94;4997410;28;20283;-66
2022/06/04 10:56:18;;;;;;;;;;;;;;;28.61;41.29;101559.53;5001394;28;19923;-66
2022/06/04 10:58:48;;;;;;;;;;;;;;;28.55;39.96;101562.13;4996982;28;19929;-67
2022/06/04 11:01:34;;;;;;;;;;;;;;;28.36;41.07;101563.22;5003043;28;19975;-66
2022/06/04 11:04:11;;;;;;;;;;;;;;;28.28;40.21;101564.75;4997875;28;21062;-66
2022/06/04 11:06:39;;;;;;;;;;;;;;;28.23;39.26;101563.31;4968541;28;19987;-66
2022/06/04 11:09:26;;;;;;;;;;;;;;;28.52;38.65;101566.56;4992164;28;20342;-66
2022/06/04 11:11:54;;;;;;;;;;;;;;;28.75;39.59;101573.59;4994819;28;19917;-66
2022/06/04 11:14:46;;;;;;;;;;;;;;;28.58;40.46;101565.97;4993699;28;19925;-67
2022/06/04 11:17:21;;;;;;;;;;;;;;;28.46;38.01;101560.06;4983681;28;19918;-66
2022/06/04 11:20:04;;;;;;;;;;;;;;;28.66;39.25;101561.69;5003331;28;19913;-66
2022/06/04 11:22:37;;;;;;;;;;;;;;;28.68;38.94;101557.25;5004482;28;19976;-66
2022/06/04 11:25:05;;;;;;;;;;;;;;;28.88;40.76;101557.59;5006560;28;19956;-66
2022/06/04 11:27:41;;;;;;;;;;;;;;;28.95;38.50;101551.00;5009410;28;19967;-66
2022/06/04 11:30:13;;;;;;;;;;;;;;;28.87;39.39;101558.84;4994438;28;20253;-66
2022/06/04 11:33:04;;;;;;;;;;;;;;;28.64;38.23;101555.84;5005585;28;19945;-67
2022/06/04 11:35:53;;;;;;;;;;;;;;;28.46;38.34;101562.81;4975309;28;20003;-67
2022/06/04 11:38:21;;;;;;;;;;;;;;;28.46;37.69;101564.81;4996397;28;20051;-67
2022/06/04 11:40:55;;;;;;;;;;;;;;;28.68;37.99;101562.00;5004455;28;19921;-66
2022/06/04 11:43:33;;;;;;;;;;;;;;;28.83;37.64;101554.66;5007491;28;19964;-66
2022/06/04 11:46:04;;;;;;;;;;;;;;;28.58;36.41;101560.44;5000236;28;20016;-66
2022/06/04 11:48:46;;;;;;;;;;;;;;;28.81;37.13;101559.88;5002108;28;19918;-67
2022/06/04 11:51:21;;;;;;;;;;;;;;;28.79;36.17;101551.25;4999596;28;19913;-66
2022/06/04 11:54:05;;;;;;;;;;;;;;;28.79;37.47;101552.03;4997602;28;19913;-67
2022/06/04 11:56:34;;;;;;;;;;;;;;;28.45;37.88;101550.19;4988225;28;19917;-66
2022/06/04 11:59:18;;;;;;;;;;;;;;;28.45;38.41;101555.72;4997479;28;19922;-66
2022/06/04 12:01:46;;;;;;;;;;;;;;;28.70;38.72;101554.00;4998635;28;19917;-66
2022/06/04 12:04:29;;;;;;;;;;;;;;;28.33;38.47;101539.97;4996343;28;19945;-67
2022/06/04 12:07:06;;;;;;;;;;;;;;;28.49;39.27;101545.25;4998368;28;19920;-66
2022/06/04 12:09:43;;;;;;;;;;;;;;;28.65;39.26;101544.28;4998678;28;19934;-66
2022/06/04 12:12:23;;;;;;;;;;;;;;;28.60;39.40;101552.44;5000266;28;19922;-67
2022/06/04 12:14:48;;;;;;;;;;;;;;;28.51;38.91;101540.03;5002059;28;19918;-66
2022/06/04 12:17:29;;;;;;;;;;;;;;;28.44;39.70;101534.00;5001474;28;19913;-66
2022/06/04 12:25:46;;;;;;;;;;;;;;;28.09;38.66;101533.38;4997278;28;19913;-66
2022/06/04 12:28:17;;;;;;;;;;;;;;;28.06;40.37;101527.97;4996283;28;20027;-66
2022/06/04 12:30:46;;;;;;;;;;;;;;;28.11;39.64;101527.38;4984875;28;20007;-66
2022/06/04 12:33:29;;;;;;;;;;;;;;;28.00;39.80;101525.03;4998592;28;20848;-66
2022/06/04 12:35:56;;;;;;;;;;;;;;;27.96;39.77;101524.38;4992656;28;19922;-66
2022/06/04 12:38:22;;;;;;;;;;;;;;;27.75;39.74;101522.38;5005804;28;19935;-66
2022/06/04 12:40:48;;;;;;;;;;;;;;;27.73;41.39;101519.28;5007534;28;19913;-66
2022/06/04 12:43:13;;;;;;;;;;;;;;;27.73;42.43;101524.81;4995182;28;20347;-66
2022/06/04 12:45:45;;;;;;;;;;;;;;;27.81;42.29;101526.09;4996342;28;19914;-66
2022/06/04 12:48:23;;;;;;;;;;;;;;;27.78;41.28;101531.78;4999744;28;19979;-66
2022/06/04 12:50:51;;;;;;;;;;;;;;;27.68;40.67;101525.38;5000638;28;19928;-66
2022/06/04 12:53:19;;;;;;;;;;;;;;;27.58;40.55;101530.09;4978476;28;19922;-66
2022/06/04 12:55:48;;;;;;;;;;;;;;;27.37;39.23;101530.84;4996659;28;19917;-66
2022/06/04 12:58:32;;;;;;;;;;;;;;;27.49;39.84;101523.72;4994698;28;19996;-66
2022/06/04 13:01:03;;;;;;;;;;;;;;;27.32;39.04;101519.53;4998175;28;19920;-66
2022/06/04 13:03:33;;;;;;;;;;;;;;;27.34;39.78;101519.91;4997783;28;19918;-66
2022/06/04 13:06:04;;;;;;;;;;;;;;;26.99;40.28;101516.31;4987884;28;20331;-66
2022/06/04 13:08:30;;;;;;;;;;;;;;;27.19;40.32;101519.59;4984822;28;19924;-66